Time;durP1;ratioP1;P1;durP2;ratioP2;P2;SDS_P1;SDS_P2;PMS_P1;PMS_P2;Temp;Humidity;BMP_temperature;BMP_pressure;BME280_temperature;BME280_humidity;BME280_pressure;Samples;Min_cycle;Max_cycle;Signal;HPM_P1;HPM_P2
2021/05/13 00:01:12;;;;;;;12.13;2.90;;;10.30;99.90;;;;;;5070141;28;20242;-78
2021/05/13 00:03:39;;;;;;;8.27;2.53;;;10.30;99.90;;;;;;5070841;28;20209;-77
2021/05/13 00:06:05;;;;;;;11.27;3.37;;;10.20;99.90;;;;;;5070294;28;20206;-75
2021/05/13 00:08:32;;;;;;;8.50;2.77;;;10.20;99.90;;;;;;5070937;28;20198;-75
2021/05/13 00:11:04;;;;;;;9.53;2.83;;;10.20;99.90;;;;;;5070230;28;20209;-75
2021/05/13 00:13:31;;;;;;;6.73;2.03;;;10.10;99.90;;;;;;5070690;28;20620;-75
2021/05/13 00:15:58;;;;;;;8.93;2.23;;;10.10;99.90;;;;;;5070232;28;20210;-82
2021/05/13 00:18:25;;;;;;;9.67;2.80;;;10.10;99.90;;;;;;5070470;28;20710;-75
2021/05/13 00:20:52;;;;;;;12.87;3.90;;;10.10;99.90;;;;;;5070586;28;20233;-77
2021/05/13 00:23:20;;;;;;;8.30;3.17;;;10.00;99.90;;;;;;5070810;28;20210;-76
2021/05/13 00:25:49;;;;;;;8.37;2.37;;;10.00;99.90;;;;;;5070546;28;20215;-75
2021/05/13 00:28:16;;;;;;;6.33;2.10;;;10.00;99.90;;;;;;5070362;28;20610;-76
2021/05/13 00:30:43;;;;;;;5.73;3.13;;;10.00;99.90;;;;;;5070294;28;20678;-78
2021/05/13 00:33:10;;;;;;;6.70;2.80;;;10.00;99.90;;;;;;5070165;28;20283;-79
2021/05/13 00:35:37;;;;;;;5.57;2.50;;;10.10;99.90;;;;;;5070061;28;20673;-80
2021/05/13 00:38:05;;;;;;;11.37;2.93;;;9.90;99.90;;;;;;5069932;28;20709;-75
2021/05/13 00:40:33;;;;;;;6.13;3.07;;;9.90;99.90;;;;;;5070098;28;20596;-74
2021/05/13 00:43:00;;;;;;;13.93;3.97;;;9.90;99.90;;;;;;5070038;28;20288;-74
2021/05/13 00:45:27;;;;;;;6.37;3.10;;;9.80;99.90;;;;;;5068365;28;20740;-75
2021/05/13 00:48:05;;;;;;;5.50;2.97;;;9.90;99.90;;;;;;5063126;28;20210;-73
2021/05/13 00:50:33;;;;;;;12.70;3.10;;;9.80;99.90;;;;;;5073771;28;20201;-73
2021/05/13 00:53:05;;;;;;;7.83;2.50;;;9.80;99.90;;;;;;5074191;28;20206;-80
2021/05/13 00:55:32;;;;;;;6.90;2.60;;;9.90;99.90;;;;;;5074095;28;20202;-73
2021/05/13 00:57:58;;;;;;;4.23;2.00;;;9.80;99.90;;;;;;5074006;28;20202;-71
2021/05/13 01:00:33;;;;;;;9.73;2.83;;;9.80;99.90;;;;;;5073876;28;20704;-73
2021/05/13 01:03:02;;;;;;;6.50;2.43;;;9.90;99.90;;;;;;5073720;28;20285;-82
2021/05/13 01:05:30;;;;;;;7.87;3.10;;;9.90;99.90;;;;;;5074479;28;20577;-72
2021/05/13 01:07:57;;;;;;;6.37;2.50;;;9.90;99.90;;;;;;5073737;28;20210;-72
2021/05/13 01:10:24;;;;;;;8.23;2.60;;;9.70;99.90;;;;;;5074031;28;20301;-72
2021/05/13 01:12:52;;;;;;;5.77;2.30;;;9.70;99.90;;;;;;5074019;28;20213;-71
2021/05/13 01:15:24;;;;;;;10.00;2.50;;;9.70;99.90;;;;;;5073935;28;20289;-72
2021/05/13 01:18:03;;;;;;;10.47;2.83;;;9.60;99.90;;;;;;5073732;28;20681;-73
2021/05/13 01:20:31;;;;;;;6.90;2.10;;;9.60;99.90;;;;;;5073603;28;20202;-72
2021/05/13 01:23:00;;;;;;;5.50;2.33;;;9.60;99.90;;;;;;5073375;28;20669;-73
2021/05/13 01:25:28;;;;;;;10.30;2.50;;;9.60;99.90;;;;;;5073737;28;20350;-74
2021/05/13 01:27:59;;;;;;;6.03;2.60;;;9.60;99.90;;;;;;5073204;28;20709;-75
2021/05/13 01:30:26;;;;;;;6.00;2.23;;;9.50;99.90;;;;;;5073096;28;20681;-73
2021/05/13 01:32:52;;;;;;;7.07;2.53;;;9.50;99.90;;;;;;5073277;28;20600;-77
2021/05/13 01:35:19;;;;;;;13.43;2.90;;;9.40;99.90;;;;;;5074034;28;20206;-75
2021/05/13 01:37:45;;;;;;;6.37;3.07;;;9.50;99.90;;;;;;5073928;28;20201;-73
2021/05/13 01:40:14;;;;;;;7.20;2.17;;;9.60;99.90;;;;;;5073109;28;20210;-76
2021/05/13 01:42:41;;;;;;;5.30;2.57;;;9.60;99.90;;;;;;5073042;28;20217;-76
2021/05/13 01:45:08;;;;;;;5.97;2.50;;;9.50;99.90;;;;;;5072732;28;20550;-75
2021/05/13 01:47:36;;;;;;;4.77;2.40;;;9.50;99.90;;;;;;5073262;28;20256;-75
2021/05/13 01:50:04;;;;;;;14.83;2.50;;;9.40;99.90;;;;;;5072789;28;20209;-74
2021/05/13 01:52:31;;;;;;;8.47;2.70;;;9.40;99.90;;;;;;5073030;28;20214;-75
2021/05/13 01:54:57;;;;;;;10.23;2.70;;;9.40;99.90;;;;;;5072654;28;20255;-76
2021/05/13 01:57:25;;;;;;;8.57;2.73;;;9.40;99.90;;;;;;5073097;28;20206;-75
2021/05/13 01:59:51;;;;;;;9.60;2.83;;;9.60;99.90;;;;;;5072697;28;20206;-75
2021/05/13 02:02:20;;;;;;;4.57;2.80;;;9.50;99.90;;;;;;5072787;28;20268;-75
2021/05/13 02:04:47;;;;;;;7.67;2.87;;;9.50;99.90;;;;;;5073259;28;20206;-75
2021/05/13 02:07:13;;;;;;;7.07;3.10;;;9.60;99.90;;;;;;5072596;28;20202;-76
2021/05/13 02:09:40;;;;;;;7.13;2.83;;;9.40;99.90;;;;;;5072541;28;20335;-75
2021/05/13 02:12:07;;;;;;;6.73;2.80;;;9.40;99.90;;;;;;5072410;28;20244;-74
2021/05/13 02:14:35;;;;;;;14.00;3.27;;;9.40;99.90;;;;;;5072492;28;20628;-74
2021/05/13 02:17:01;;;;;;;8.13;2.70;;;9.40;99.90;;;;;;5072555;28;20210;-77
2021/05/13 02:19:28;;;;;;;7.03;2.57;;;9.30;99.90;;;;;;5072628;28;20696;-77
2021/05/13 02:21:54;;;;;;;12.03;3.17;;;9.30;99.90;;;;;;5072059;28;20241;-77
2021/05/13 02:24:21;;;;;;;7.57;3.20;;;9.30;99.90;;;;;;5072547;28;20225;-77
2021/05/13 02:26:48;;;;;;;6.37;3.13;;;9.40;99.90;;;;;;5069672;28;20288;-77
2021/05/13 02:29:14;;;;;;;3.17;1.90;;;9.50;99.90;;;;;;5061660;28;20218;-77
2021/05/13 02:31:42;;;;;;;10.10;2.60;;;9.40;99.90;;;;;;5072519;28;20210;-77
2021/05/13 02:34:09;;;;;;;9.47;2.57;;;9.50;99.90;;;;;;5072192;28;20221;-77
2021/05/13 02:36:37;;;;;;;6.57;2.33;;;9.50;99.90;;;;;;5072287;28;20292;-76
2021/05/13 02:39:04;;;;;;;7.63;2.87;;;9.50;99.90;;;;;;5072059;28;20202;-80
2021/05/13 02:41:31;;;;;;;7.17;2.00;;;9.50;99.90;;;;;;5072368;28;20230;-76
2021/05/13 02:43:57;;;;;;;4.67;2.13;;;9.50;99.90;;;;;;5071609;28;20206;-77
2021/05/13 02:46:24;;;;;;;5.17;2.50;;;9.40;99.90;;;;;;5072152;28;20693;-80
2021/05/13 02:48:51;;;;;;;10.10;2.00;;;9.40;99.90;;;;;;5072224;28;20213;-75
2021/05/13 02:51:18;;;;;;;14.03;2.77;;;9.40;99.90;;;;;;5072236;28;20236;-75
2021/05/13 02:53:44;;;;;;;7.10;3.20;;;9.30;99.90;;;;;;5072152;28;20708;-76
2021/05/13 02:56:10;;;;;;;5.03;2.43;;;9.20;99.90;;;;;;5071494;28;20645;-74
2021/05/13 02:58:37;;;;;;;10.43;3.17;;;9.30;99.90;;;;;;5072220;28;20199;-75
2021/05/13 03:01:11;;;;;;;7.43;2.10;;;9.30;99.90;;;;;;5071342;28;20229;-75
2021/05/13 03:03:38;;;;;;;9.07;2.73;;;9.20;99.90;;;;;;5072345;28;20222;-80
2021/05/13 03:06:05;;;;;;;4.80;2.10;;;9.20;99.90;;;;;;5071555;28;20212;-76
2021/05/13 03:08:32;;;;;;;6.33;2.00;;;9.10;99.90;;;;;;5072300;28;20203;-78
2021/05/13 03:10:58;;;;;;;8.47;2.53;;;9.20;99.90;;;;;;5071307;28;20213;-76
2021/05/13 03:13:27;;;;;;;7.70;2.70;;;9.20;99.90;;;;;;5071561;28;20210;-76
2021/05/13 03:15:53;;;;;;;5.40;2.70;;;9.20;99.90;;;;;;5071208;28;20214;-76
2021/05/13 03:18:22;;;;;;;9.33;2.70;;;9.10;99.90;;;;;;5071224;28;20203;-74
2021/05/13 03:20:52;;;;;;;8.30;2.80;;;9.20;99.90;;;;;;5071680;28;20230;-76
2021/05/13 03:23:25;;;;;;;9.80;2.33;;;9.20;99.90;;;;;;5071740;28;20206;-74
2021/05/13 03:26:00;;;;;;;8.40;3.00;;;9.20;99.90;;;;;;5070646;28;20214;-74
2021/05/13 03:28:26;;;;;;;14.53;2.70;;;9.10;99.90;;;;;;5071255;28;20202;-74
2021/05/13 03:30:53;;;;;;;9.23;2.83;;;9.10;99.90;;;;;;5070964;28;20206;-77
2021/05/13 03:33:19;;;;;;;12.27;3.10;;;9.10;99.90;;;;;;5071242;28;20547;-77
2021/05/13 03:35:46;;;;;;;5.23;2.10;;;9.00;99.90;;;;;;5071511;28;20202;-77
2021/05/13 03:38:13;;;;;;;8.30;2.70;;;9.10;99.90;;;;;;5070792;28;20214;-78
2021/05/13 03:40:41;;;;;;;9.30;3.23;;;9.10;99.90;;;;;;5070615;28;20299;-77
2021/05/13 03:43:08;;;;;;;8.23;2.37;;;9.10;99.90;;;;;;5070567;28;20213;-74
2021/05/13 03:45:34;;;;;;;7.47;2.30;;;9.00;99.90;;;;;;5072763;28;20199;-73
2021/05/13 03:48:02;;;;;;;6.17;2.67;;;9.10;99.90;;;;;;5064075;28;20301;-73
2021/05/13 03:50:30;;;;;;;4.93;2.07;;;9.10;99.90;;;;;;5069972;28;20256;-77
2021/05/13 03:52:57;;;;;;;7.40;2.43;;;9.00;99.90;;;;;;5070462;28;20206;-74
2021/05/13 03:55:23;;;;;;;6.80;2.67;;;8.90;99.90;;;;;;5070440;28;20569;-78
2021/05/13 03:57:54;;;;;;;3.03;1.63;;;9.00;99.90;;;;;;5070691;28;20734;-73
2021/05/13 04:00:27;;;;;;;5.47;1.77;;;8.90;99.90;;;;;;5071138;28;20213;-72
2021/05/13 04:02:53;;;;;;;7.47;1.93;;;8.80;99.90;;;;;;5067331;28;20203;-73
2021/05/13 04:05:20;;;;;;;5.53;2.57;;;9.00;99.90;;;;;;5071098;28;20207;-73
2021/05/13 04:07:48;;;;;;;7.17;2.20;;;8.90;99.90;;;;;;5071147;28;20210;-72
2021/05/13 04:10:15;;;;;;;3.40;1.90;;;9.00;99.90;;;;;;5070244;28;20228;-72
2021/05/13 04:12:43;;;;;;;6.30;1.93;;;8.90;99.90;;;;;;5070582;28;20255;-74
2021/05/13 04:15:12;;;;;;;5.30;2.37;;;9.00;99.90;;;;;;5070131;28;20228;-72
2021/05/13 04:17:39;;;;;;;7.10;2.10;;;8.90;99.90;;;;;;5070653;28;20220;-76
2021/05/13 04:20:07;;;;;;;10.03;3.37;;;8.90;99.90;;;;;;5070230;28;20210;-74
2021/05/13 04:22:34;;;;;;;9.33;3.17;;;8.90;99.90;;;;;;5070456;28;20329;-74
2021/05/13 04:25:01;;;;;;;10.20;3.00;;;8.90;99.90;;;;;;5069327;28;20214;-74
2021/05/13 04:27:27;;;;;;;10.53;2.20;;;9.00;99.90;;;;;;5070712;28;20577;-74
2021/05/13 04:29:54;;;;;;;8.03;2.23;;;8.90;99.90;;;;;;5070232;28;20209;-74
2021/05/13 04:32:21;;;;;;;6.57;2.57;;;8.90;99.90;;;;;;5070762;28;20225;-73
2021/05/13 04:34:48;;;;;;;4.80;1.77;;;9.00;99.90;;;;;;5070967;28;20295;-74
2021/05/13 04:37:14;;;;;;;11.63;2.50;;;8.90;99.90;;;;;;5069529;28;20576;-76
2021/05/13 04:39:41;;;;;;;10.83;2.60;;;8.90;99.90;;;;;;5063453;28;20207;-74
2021/05/13 04:42:08;;;;;;;13.27;2.87;;;8.70;99.90;;;;;;5066876;28;20229;-76
2021/05/13 04:44:36;;;;;;;5.53;2.00;;;8.80;99.90;;;;;;5070689;28;20272;-75
2021/05/13 04:47:18;;;;;;;5.40;2.30;;;9.00;99.90;;;;;;5069907;28;20209;-75
2021/05/13 04:49:49;;;;;;;5.73;2.20;;;9.00;99.90;;;;;;5070746;28;20576;-78
2021/05/13 04:52:15;;;;;;;3.97;1.70;;;9.00;99.90;;;;;;5069594;28;20209;-76
2021/05/13 04:54:42;;;;;;;7.10;2.60;;;9.00;99.90;;;;;;5070200;28;20206;-75
2021/05/13 04:57:08;;;;;;;12.10;3.13;;;9.00;99.90;;;;;;5070147;28;20206;-74
2021/05/13 04:59:35;;;;;;;6.80;2.83;;;8.90;99.90;;;;;;5070020;28;20210;-75
2021/05/13 05:02:02;;;;;;;5.73;2.00;;;8.80;99.90;;;;;;5069559;28;20230;-80
2021/05/13 05:04:28;;;;;;;10.93;2.30;;;8.80;99.90;;;;;;5070205;28;20206;-78
2021/05/13 05:06:55;;;;;;;6.10;2.30;;;8.80;99.90;;;;;;5069974;28;20267;-76
2021/05/13 05:09:23;;;;;;;9.83;2.40;;;8.70;99.90;;;;;;5070360;28;20206;-80
2021/05/13 05:11:50;;;;;;;7.17;2.77;;;8.90;99.90;;;;;;5070133;28;20309;-82
2021/05/13 05:14:17;;;;;;;7.90;2.43;;;8.90;99.90;;;;;;5070144;28;20727;-80
2021/05/13 05:16:44;;;;;;;7.00;2.40;;;9.00;99.90;;;;;;5070162;28;20620;-79
2021/05/13 05:19:11;;;;;;;11.80;3.17;;;8.90;99.90;;;;;;5069541;28;20217;-76
2021/05/13 05:21:38;;;;;;;4.47;2.43;;;9.00;99.90;;;;;;5069770;28;20233;-75
2021/05/13 05:24:07;;;;;;;6.70;3.00;;;9.00;99.90;;;;;;5069655;28;20214;-75
2021/05/13 05:26:33;;;;;;;10.53;2.23;;;9.10;99.90;;;;;;5069733;28;20596;-76
2021/05/13 05:29:00;;;;;;;5.87;2.17;;;9.10;99.90;;;;;;5069557;28;20217;-77
2021/05/13 05:31:27;;;;;;;8.73;3.17;;;9.20;99.90;;;;;;5057092;28;20206;-75
2021/05/13 05:33:53;;;;;;;4.10;2.47;;;9.30;99.90;;;;;;5068655;28;20206;-76
2021/05/13 05:36:20;;;;;;;9.40;2.53;;;9.40;99.90;;;;;;5070988;28;20210;-75
2021/05/13 05:38:46;;;;;;;6.63;2.43;;;9.40;99.90;;;;;;5073644;28;20214;-73
2021/05/13 05:41:14;;;;;;;7.50;3.67;;;9.50;99.90;;;;;;5064168;28;20236;-80
2021/05/13 05:43:40;;;;;;;3.57;2.07;;;9.50;99.90;;;;;;5072532;28;20267;-76
2021/05/13 05:46:07;;;;;;;8.13;2.30;;;9.50;99.90;;;;;;5071352;28;20210;-77
2021/05/13 05:48:33;;;;;;;8.77;2.77;;;9.60;99.90;;;;;;5072572;28;20210;-75
2021/05/13 05:51:00;;;;;;;4.87;2.10;;;10.10;99.90;;;;;;5072670;28;20213;-74
2021/05/13 05:53:26;;;;;;;12.13;3.80;;;10.20;99.90;;;;;;5073341;28;20576;-76
2021/05/13 05:55:53;;;;;;;7.13;2.80;;;10.30;99.90;;;;;;5072753;28;20202;-76
2021/05/13 05:58:20;;;;;;;9.53;2.20;;;10.50;99.90;;;;;;5073739;28;20203;-77
2021/05/13 06:00:47;;;;;;;6.80;2.67;;;10.40;99.90;;;;;;5073432;28;20203;-76
2021/05/13 06:03:13;;;;;;;6.03;2.47;;;10.70;99.90;;;;;;5072436;28;20332;-76
2021/05/13 06:05:39;;;;;;;5.13;1.90;;;10.80;99.90;;;;;;5072940;28;20210;-75
2021/05/13 06:08:06;;;;;;;5.13;1.97;;;10.60;99.90;;;;;;5072586;28;20222;-76
2021/05/13 06:10:33;;;;;;;6.17;2.57;;;10.60;99.90;;;;;;5073115;28;20198;-78
2021/05/13 06:12:59;;;;;;;7.87;1.93;;;10.50;99.90;;;;;;5072652;28;20213;-74
2021/05/13 06:15:27;;;;;;;12.33;2.13;;;10.70;99.90;;;;;;5072999;28;20229;-74
2021/05/13 06:17:54;;;;;;;5.70;2.20;;;10.80;99.90;;;;;;5072649;28;20210;-75
2021/05/13 06:20:23;;;;;;;3.13;1.63;;;11.10;99.90;;;;;;5072662;28;20206;-73
2021/05/13 06:22:50;;;;;;;5.97;2.13;;;11.10;99.90;;;;;;5072889;28;20236;-75
2021/05/13 06:25:18;;;;;;;3.50;1.60;;;11.10;99.90;;;;;;5071042;28;20784;-73
2021/05/13 06:27:45;;;;;;;9.50;1.93;;;11.00;99.90;;;;;;5063942;28;20215;-73
2021/05/13 06:30:14;;;;;;;6.10;1.60;;;11.00;99.90;;;;;;5068882;28;20210;-74
2021/05/13 06:32:42;;;;;;;7.10;2.53;;;10.90;99.90;;;;;;5068855;28;20218;-74
2021/05/13 06:35:09;;;;;;;6.43;1.77;;;11.00;99.90;;;;;;5071658;28;20240;-75
2021/05/13 06:37:36;;;;;;;6.33;2.33;;;11.00;99.90;;;;;;5071872;28;20210;-76
2021/05/13 06:40:03;;;;;;;7.67;1.57;;;10.90;99.90;;;;;;5068013;28;20202;-73
2021/05/13 06:42:30;;;;;;;5.33;1.90;;;11.10;99.90;;;;;;5059231;28;20265;-73
2021/05/13 06:44:56;;;;;;;4.63;1.83;;;11.10;99.90;;;;;;5062510;28;20214;-74
2021/05/13 06:47:23;;;;;;;5.23;1.57;;;11.10;99.90;;;;;;5066245;28;20203;-73
2021/05/13 06:49:50;;;;;;;5.73;1.90;;;11.20;99.90;;;;;;5060561;28;20203;-74
2021/05/13 06:52:17;;;;;;;6.17;1.83;;;11.40;99.90;;;;;;5069645;28;20202;-74
2021/05/13 06:54:46;;;;;;;6.97;2.03;;;11.80;99.90;;;;;;5069939;28;20202;-74
2021/05/13 06:57:13;;;;;;;6.00;1.90;;;12.20;99.90;;;;;;5071513;28;20210;-74
2021/05/13 06:59:41;;;;;;;4.93;1.77;;;12.10;99.90;;;;;;5070583;28;20229;-74
2021/05/13 07:02:08;;;;;;;7.13;2.40;;;12.00;99.90;;;;;;5067985;28;20229;-75
2021/05/13 07:04:35;;;;;;;7.57;2.00;;;12.10;99.90;;;;;;5055912;28;20210;-74
2021/05/13 07:07:02;;;;;;;7.80;1.90;;;12.20;99.90;;;;;;5062170;28;20206;-75
2021/05/13 07:09:29;;;;;;;11.93;2.77;;;12.20;99.90;;;;;;5066523;28;20678;-75
2021/05/13 07:11:55;;;;;;;11.93;1.70;;;12.20;99.90;;;;;;5064325;28;20468;-74
2021/05/13 07:14:22;;;;;;;8.47;2.03;;;12.10;99.90;;;;;;5062075;28;20209;-74
2021/05/13 07:16:49;;;;;;;7.47;1.97;;;12.20;99.90;;;;;;5065265;28;20207;-75
2021/05/13 07:19:15;;;;;;;7.17;1.70;;;12.30;99.90;;;;;;5062140;28;20210;-75
2021/05/13 07:21:42;;;;;;;5.70;1.97;;;12.20;99.90;;;;;;5071500;28;20616;-76
2021/05/13 07:24:10;;;;;;;4.83;2.27;;;12.40;99.90;;;;;;5068438;28;20215;-74
2021/05/13 07:26:37;;;;;;;6.87;1.70;;;12.60;99.90;;;;;;5066087;28;20209;-73
2021/05/13 07:29:04;;;;;;;4.57;1.60;;;12.70;99.90;;;;;;5070718;28;20670;-74
2021/05/13 07:31:30;;;;;;;5.90;1.30;;;12.80;99.90;;;;;;5070208;28;20202;-77
2021/05/13 07:33:57;;;;;;;7.07;1.63;;;12.90;99.90;;;;;;5068833;28;20210;-73
2021/05/13 07:36:24;;;;;;;4.90;1.50;;;13.00;99.90;;;;;;5069731;28;20622;-73
2021/05/13 07:38:50;;;;;;;9.07;1.83;;;12.90;99.90;;;;;;5061524;28;20240;-75
2021/05/13 07:41:18;;;;;;;3.93;1.77;;;13.00;99.90;;;;;;5065502;28;20243;-72
2021/05/13 07:43:44;;;;;;;5.93;2.30;;;13.70;99.90;;;;;;5068770;28;20237;-73
2021/05/13 07:46:11;;;;;;;4.13;1.67;;;14.20;99.90;;;;;;5053750;28;20207;-72
2021/05/13 07:48:38;;;;;;;8.13;2.47;;;13.70;99.90;;;;;;5058880;28;20238;-72
2021/05/13 07:51:05;;;;;;;5.35;2.17;;;13.70;99.90;;;;;;5060830;28;20209;-73
2021/05/13 07:53:31;;;;;;;6.97;1.53;;;13.60;99.90;;;;;;5055783;28;20226;-72
2021/05/13 07:55:58;;;;;;;5.60;1.50;;;14.10;99.90;;;;;;5056160;28;20210;-73
2021/05/13 07:58:25;;;;;;;3.05;1.85;;;14.50;99.90;;;;;;5063133;28;20670;-75
2021/05/13 08:00:52;;;;;;;9.70;2.70;;;14.60;99.90;;;;;;5068953;28;20209;-73
2021/05/13 08:03:18;;;;;;;5.07;1.55;;;15.50;99.90;;;;;;5056320;28;20202;-74
2021/05/13 08:05:45;;;;;;;6.53;2.00;;;15.60;99.90;;;;;;5062361;28;20210;-72
2021/05/13 08:08:11;;;;;;;11.32;1.70;;;15.60;99.90;;;;;;5058002;28;20206;-73
2021/05/13 08:10:38;;;;;;;10.55;2.47;;;15.30;99.90;;;;;;5051777;28;20570;-74
2021/05/13 08:13:04;;;;;;;6.65;2.17;;;14.90;99.90;;;;;;5065551;28;20213;-74
2021/05/13 08:15:32;;;;;;;6.97;2.50;;;14.60;99.90;;;;;;5058461;28;20213;-73
2021/05/13 08:17:59;;;;;;;3.83;1.80;;;14.90;99.90;;;;;;5070033;28;20205;-74
2021/05/13 08:20:25;;;;;;;4.70;1.85;;;15.00;99.90;;;;;;5070131;28;20687;-74
2021/05/13 08:22:51;;;;;;;6.97;2.33;;;15.20;99.90;;;;;;5070027;28;20233;-74
2021/05/13 08:25:20;;;;;;;4.97;1.90;;;15.90;99.90;;;;;;5070148;28;20244;-74
2021/05/13 08:27:48;;;;;;;7.82;1.52;;;16.30;99.90;;;;;;5069956;28;20206;-74
2021/05/13 08:30:15;;;;;;;11.60;3.38;;;16.20;99.90;;;;;;5069710;28;20198;-73
2021/05/13 08:32:43;;;;;;;12.23;2.38;;;16.10;99.90;;;;;;5070403;28;20220;-73
2021/05/13 08:35:11;;;;;;;5.78;2.75;;;16.20;99.90;;;;;;5069575;28;20210;-74
2021/05/13 08:37:38;;;;;;;10.50;2.55;;;16.20;99.90;;;;;;5070327;28;20227;-73
2021/05/13 08:40:05;;;;;;;6.30;1.92;;;16.10;99.90;;;;;;5069961;28;20210;-73
2021/05/13 08:42:33;;;;;;;3.72;1.75;;;16.00;99.90;;;;;;5069359;28;20299;-74
2021/05/13 08:45:00;;;;;;;4.18;1.73;;;17.20;99.90;;;;;;5069785;28;20206;-73
2021/05/13 08:47:27;;;;;;;3.80;1.75;;;16.60;99.90;;;;;;5070282;28;20210;-74
2021/05/13 08:49:54;;;;;;;8.90;2.67;;;16.50;99.90;;;;;;5070091;28;20213;-74
2021/05/13 08:52:25;;;;;;;5.93;1.73;;;16.40;99.90;;;;;;5064704;28;20573;-74
2021/05/13 08:54:53;;;;;;;6.43;2.67;;;16.90;99.90;;;;;;5070090;28;20293;-74
2021/05/13 08:57:19;;;;;;;5.07;1.67;;;17.30;99.90;;;;;;5070742;28;20210;-74
2021/05/13 08:59:46;;;;;;;7.55;2.25;;;17.40;99.90;;;;;;5070237;28;20664;-73
2021/05/13 09:02:14;;;;;;;4.97;1.65;;;17.50;99.90;;;;;;5069565;28;20651;-74
2021/05/13 09:04:42;;;;;;;5.63;1.52;;;17.80;99.90;;;;;;5070142;28;20237;-74
2021/05/13 09:07:13;;;;;;;4.40;1.52;;;17.90;99.90;;;;;;5070000;28;20202;-74
2021/05/13 09:09:54;;;;;;;4.53;1.55;;;17.80;99.90;;;;;;5070425;28;20289;-74
2021/05/13 09:12:21;;;;;;;4.47;1.63;;;18.40;99.90;;;;;;5074035;28;20217;-74
2021/05/13 09:14:57;;;;;;;4.30;1.90;;;19.00;99.90;;;;;;5074308;28;20208;-73
2021/05/13 09:17:25;;;;;;;4.80;1.60;;;17.50;99.90;;;;;;5074110;28;20221;-74
2021/05/13 09:19:52;;;;;;;4.13;1.70;;;18.30;99.90;;;;;;5073414;28;20213;-74
2021/05/13 09:22:23;;;;;;;4.25;1.77;;;18.60;99.90;;;;;;5074147;28;20233;-75
2021/05/13 09:24:52;;;;;;;4.90;1.23;;;18.10;99.90;;;;;;5073869;28;20228;-74
2021/05/13 09:27:21;;;;;;;4.30;1.63;;;18.40;99.90;;;;;;5073669;28;20238;-74
2021/05/13 09:29:59;;;;;;;4.72;1.52;;;18.30;99.90;;;;;;5074241;28;20553;-74
2021/05/13 09:32:26;;;;;;;4.57;1.50;;;19.40;99.90;;;;;;5073793;28;20210;-74
2021/05/13 09:34:52;;;;;;;5.43;1.55;;;21.40;99.90;;;;;;5073236;28;20264;-74
2021/05/13 09:37:20;;;;;;;3.30;1.55;;;22.50;99.90;;;;;;5073760;28;20202;-75
2021/05/13 09:39:48;;;;;;;7.10;1.90;;;21.50;99.90;;;;;;5073481;28;20583;-75
2021/05/13 09:42:17;;;;;;;2.47;1.45;;;19.80;99.90;;;;;;5072498;28;20225;-75
2021/05/13 09:44:45;;;;;;;4.57;1.42;;;19.20;99.90;;;;;;5073767;28;20206;-75
2021/05/13 09:47:16;;;;;;;3.03;1.30;;;19.70;99.90;;;;;;5072832;28;20210;-74
2021/05/13 09:49:54;;;;;;;2.15;1.20;;;19.40;99.90;;;;;;5073141;28;20202;-75
2021/05/13 09:53:03;;;;;;;3.92;1.63;;;19.60;99.90;;;;;;5073230;28;20221;-73
2021/05/13 09:55:30;;;;;;;4.22;1.08;;;19.40;99.90;;;;;;5063164;28;20275;-74
2021/05/13 09:58:04;;;;;;;1.67;0.93;;;19.20;99.90;;;;;;5072615;28;20557;-72
2021/05/13 10:00:43;;;;;;;3.72;0.88;;;20.40;99.90;;;;;;5073090;28;20743;-73
2021/05/13 10:03:13;;;;;;;5.07;1.70;;;21.10;99.90;;;;;;5072467;28;20629;-73
2021/05/13 10:05:41;;;;;;;1.67;1.00;;;24.80;99.90;;;;;;5073197;28;20725;-73
2021/05/13 10:08:09;;;;;;;3.70;1.45;;;23.00;99.90;;;;;;5072577;28;20202;-73
2021/05/13 10:10:37;;;;;;;6.00;2.03;;;20.80;99.90;;;;;;5065588;28;20217;-72
2021/05/13 10:13:05;;;;;;;3.05;1.65;;;21.90;99.90;;;;;;5063237;28;20227;-73
2021/05/13 10:15:32;;;;;;;2.33;1.13;;;24.30;99.90;;;;;;5073119;28;20285;-72
2021/05/13 10:18:02;;;;;;;5.95;2.17;;;27.90;99.90;;;;;;5072490;28;20243;-72
2021/05/13 10:20:31;;;;;;;5.85;1.40;;;28.80;99.90;;;;;;5059859;28;20612;-73
2021/05/13 10:22:59;;;;;;;3.67;1.38;;;29.10;99.90;;;;;;5071648;28;20245;-72
2021/05/13 10:25:27;;;;;;;2.72;1.48;;;30.00;99.90;;;;;;5071853;28;20210;-72
2021/05/13 10:27:56;;;;;;;2.80;1.13;;;29.20;99.90;;;;;;5072446;28;20210;-71
2021/05/13 10:30:24;;;;;;;5.05;1.08;;;23.00;99.90;;;;;;5072404;28;20198;-73
2021/05/13 10:33:16;;;;;;;3.38;1.52;;;22.60;99.90;;;;;;5072639;28;20673;-75
2021/05/13 10:36:05;;;;;;;3.17;1.65;;;20.10;99.90;;;;;;5058867;28;20277;-74
2021/05/13 10:38:50;;;;;;;2.47;0.98;;;19.80;99.90;;;;;;5072352;28;20313;-74
2021/05/13 10:41:35;;;;;;;3.35;1.17;;;20.40;99.90;;;;;;5072282;28;20267;-72
2021/05/13 10:44:38;;;;;;;2.10;1.13;;;20.40;99.90;;;;;;5071997;28;20210;-73
2021/05/13 10:47:10;;;;;;;3.80;1.65;;;19.90;99.90;;;;;;5071608;28;20202;-73
2021/05/13 10:49:47;;;;;;;3.45;0.95;;;20.00;99.90;;;;;;5072374;28;20289;-73
2021/05/13 10:52:38;;;;;;;1.90;1.00;;;19.60;99.90;;;;;;5070826;28;20267;-73
2021/05/13 10:55:07;;;;;;;2.83;1.25;;;18.70;99.90;;;;;;5069292;28;20225;-74
2021/05/13 10:57:52;;;;;;;4.15;1.25;;;18.50;99.90;;;;;;5066487;28;20617;-73
2021/05/13 11:00:23;;;;;;;3.13;1.10;;;19.20;99.90;;;;;;5060874;28;20563;-73
2021/05/13 11:02:50;;;;;;;2.10;1.27;;;19.70;99.90;;;;;;5068374;28;20624;-74
2021/05/13 11:05:43;;;;;;;2.28;1.10;;;19.50;99.90;;;;;;5058161;28;20229;-72
2021/05/13 11:08:53;;;;;;;3.38;1.58;;;19.30;99.90;;;;;;5068304;28;20584;-74
2021/05/13 11:11:19;;;;;;;4.35;1.23;;;19.80;99.90;;;;;;5059090;28;21074;-74
2021/05/13 11:13:51;;;;;;;4.55;1.35;;;20.30;99.90;;;;;;5071792;28;20269;-73
2021/05/13 11:16:41;;;;;;;3.10;1.42;;;19.40;99.90;;;;;;5060260;28;20252;-73
2021/05/13 11:19:24;;;;;;;2.63;1.48;;;18.40;99.90;;;;;;5064078;28;20202;-73
2021/05/13 11:21:59;;;;;;;6.45;1.33;;;17.90;99.90;;;;;;5066710;28;20256;-73
2021/05/13 11:24:35;;;;;;;2.75;2.55;;;18.80;99.90;;;;;;5075098;28;20214;-73
2021/05/13 11:27:02;;;;;;;4.75;1.50;;;19.30;99.90;;;;;;5069580;28;20248;-73
2021/05/13 11:29:43;;;;;;;3.47;1.35;;;18.60;99.90;;;;;;5071291;28;20751;-73
2021/05/13 11:32:10;;;;;;;3.90;0.90;;;18.70;99.90;;;;;;5069835;28;20233;-72
2021/05/13 11:34:41;;;;;;;2.65;0.95;;;19.10;99.90;;;;;;5061282;28;20678;-72
2021/05/13 11:37:07;;;;;;;3.00;1.30;;;19.60;99.90;;;;;;5070653;28;20237;-75
2021/05/13 11:39:34;;;;;;;1.17;0.95;;;20.00;99.90;;;;;;5070887;28;20206;-73
2021/05/13 11:42:01;;;;;;;3.10;0.85;;;19.80;99.90;;;;;;5069897;28;20720;-75
2021/05/13 11:44:29;;;;;;;1.55;0.75;;;20.10;99.90;;;;;;5069008;28;20217;-75
2021/05/13 11:46:55;;;;;;;3.03;1.20;;;19.40;99.90;;;;;;5061652;28;20584;-77
2021/05/13 11:49:22;;;;;;;2.90;1.13;;;19.60;99.90;;;;;;5070050;28;20574;-77
2021/05/13 11:51:48;;;;;;;2.10;1.27;;;19.70;99.90;;;;;;5061826;28;20211;-75
2021/05/13 11:54:15;;;;;;;2.50;1.42;;;19.40;99.90;;;;;;5069234;28;20221;-75
2021/05/13 11:56:43;;;;;;;5.00;1.15;;;19.70;99.90;;;;;;5070340;28;20220;-74
2021/05/13 11:59:10;;;;;;;1.90;0.82;;;20.00;99.90;;;;;;5071883;28;20555;-75
2021/05/13 12:01:39;;;;;;;1.90;0.73;;;20.00;99.90;;;;;;5070223;28;20236;-75
2021/05/13 12:04:10;;;;;;;1.00;0.77;;;20.00;99.90;;;;;;5066474;28;20206;-74
2021/05/13 12:06:42;;;;;;;3.40;1.50;;;19.80;99.90;;;;;;5067783;28;20206;-73
2021/05/13 12:09:09;;;;;;;2.70;1.30;;;18.90;99.90;;;;;;5070526;28;20239;-75
2021/05/13 12:11:37;;;;;;;3.28;1.75;;;18.90;99.90;;;;;;5070578;28;20202;-73
2021/05/13 12:14:07;;;;;;;1.48;1.38;;;18.50;99.90;;;;;;5070208;28;20677;-76
2021/05/13 12:16:34;;;;;;;4.75;1.42;;;19.30;99.90;;;;;;5070419;28;20202;-75
2021/05/13 12:19:05;;;;;;;3.20;1.05;;;19.90;99.90;;;;;;5070434;28;20206;-75
2021/05/13 12:21:34;;;;;;;2.65;1.27;;;20.60;99.90;;;;;;5070182;28;20209;-75
2021/05/13 12:24:02;;;;;;;2.75;1.40;;;20.20;99.90;;;;;;5070149;28;20214;-75
2021/05/13 12:26:31;;;;;;;1.17;0.80;;;19.90;99.90;;;;;;5070025;28;20202;-73
2021/05/13 12:28:58;;;;;;;1.58;1.25;;;19.60;99.90;;;;;;5069766;28;20217;-75
2021/05/13 12:31:30;;;;;;;3.15;1.15;;;20.00;99.90;;;;;;5070448;28;20251;-75
2021/05/13 12:34:00;;;;;;;2.10;1.02;;;20.40;99.90;;;;;;5069817;28;20677;-75
2021/05/13 12:36:27;;;;;;;4.63;1.08;;;20.60;99.90;;;;;;5070146;28;20301;-75
2021/05/13 12:38:56;;;;;;;3.53;1.15;;;21.10;99.90;;;;;;5069455;28;20552;-75
2021/05/13 12:41:26;;;;;;;2.67;0.70;;;20.50;99.90;;;;;;5067955;28;20217;-75
2021/05/13 12:44:04;;;;;;;3.00;1.05;;;20.20;99.90;;;;;;5069706;28;20669;-75
2021/05/13 12:46:31;;;;;;;2.28;0.63;;;19.90;99.90;;;;;;5070157;28;20317;-76
2021/05/13 12:48:57;;;;;;;1.27;0.93;;;19.80;99.90;;;;;;5069800;28;20563;-75
2021/05/13 12:51:26;;;;;;;2.65;0.98;;;20.10;99.90;;;;;;5069705;28;20201;-75
2021/05/13 12:53:54;;;;;;;1.80;1.00;;;20.70;99.90;;;;;;5069730;28;20210;-75
2021/05/13 12:56:30;;;;;;;2.70;1.40;;;21.30;99.90;;;;;;5070317;28;20232;-75
2021/05/13 12:59:10;;;;;;;1.08;0.63;;;21.70;99.90;;;;;;5069753;28;20677;-75